EZY89HN LGIR-EGPH
Flight info
| Callsign | EZY89HN |
|---|---|
| Flight time | 4h 16m |
| Altitude | 34000 |
| Route | EPALO M749 DIRMI UL613 XANIS DCT DIMIS DCT UNDER/N0442F360 DCT BIGLO DCT EMKES DCT EDALA DCT KOMAR DCT PIXAL DCT PODET DCT SIMBA DCT GASKA DCT MASEK DCT MAPOX DCT BIGGE DCT SONEB DCT GODOS DCT AGPED |
| Aircraft | A320/M-SDE2E3FGHIJ1RWXYZ/LB1 |
Departure
| Time | 2026-04-24 08:05 |
|---|---|
| Airport | Heraklion International Nikos Kazantzakis Airport (LGIR) |
Arrival
| Time | 2026-04-24 12:21 |
|---|---|
| Airport | Edinburgh Airport (EGPH) |
| Time | Latitude | Longitude | Altitude | Speed | Heading |
|---|---|---|---|---|---|
| 2026-04-24 07:20 | 35.33822 | 25.17414 | 93 ft | 0 kts | 317° |
| 2026-04-24 07:59 | 35.33823 | 25.17413 | 91 ft | 1 kts | 317° |
| 2026-04-24 07:59 | 35.33830 | 25.17405 | 91 ft | 2 kts | 319° |
| 2026-04-24 07:59 | 35.33851 | 25.17385 | 91 ft | 5 kts | 327° |
| 2026-04-24 07:59 | 35.33898 | 25.17380 | 93 ft | 8 kts | 19° |
| 2026-04-24 08:00 | 35.33915 | 25.17446 | 90 ft | 9 kts | 93° |
| 2026-04-24 08:00 | 35.33911 | 25.17515 | 93 ft | 6 kts | 94° |
| 2026-04-24 08:00 | 35.33909 | 25.17546 | 94 ft | 1 kts | 95° |
| 2026-04-24 08:00 | 35.33908 | 25.17559 | 91 ft | 2 kts | 95° |
| 2026-04-24 08:01 | 35.33906 | 25.17584 | 91 ft | 5 kts | 95° |
| 2026-04-24 08:01 | 35.33902 | 25.17645 | 91 ft | 13 kts | 95° |
| 2026-04-24 08:01 | 35.33892 | 25.17789 | 92 ft | 16 kts | 94° |
| 2026-04-24 08:01 | 35.33885 | 25.17909 | 92 ft | 13 kts | 95° |
| 2026-04-24 08:02 | 35.33876 | 25.18027 | 92 ft | 15 kts | 95° |
| 2026-04-24 08:02 | 35.33868 | 25.18148 | 94 ft | 13 kts | 94° |
| 2026-04-24 08:02 | 35.33860 | 25.18263 | 93 ft | 19 kts | 95° |
| 2026-04-24 08:02 | 35.33847 | 25.18446 | 90 ft | 22 kts | 95° |
| 2026-04-24 08:03 | 35.33834 | 25.18631 | 90 ft | 21 kts | 94° |
| 2026-04-24 08:03 | 35.33822 | 25.18807 | 90 ft | 19 kts | 95° |
| 2026-04-24 08:03 | 35.33828 | 25.18946 | 93 ft | 15 kts | 63° |
| 2026-04-24 08:03 | 35.33886 | 25.19024 | 91 ft | 8 kts | 4° |
| 2026-04-24 08:04 | 35.33909 | 25.18976 | 89 ft | 9 kts | 277° |
| 2026-04-24 08:04 | 35.33924 | 25.18740 | 90 ft | 59 kts | 274° |
| 2026-04-24 08:04 | 35.33979 | 25.17965 | 95 ft | 121 kts | 275° |
| 2026-04-24 08:04 | 35.34064 | 25.16737 | 187 ft | 160 kts | 275° |
| 2026-04-24 08:05 | 35.34174 | 25.15403 | 940 ft | 159 kts | 282° |
| 2026-04-24 08:05 | 35.34761 | 25.14297 | 1608 ft | 161 kts | 332° |
| 2026-04-24 08:05 | 35.35876 | 25.13853 | 1960 ft | 179 kts | 348° |
| 2026-04-24 08:05 | 35.37162 | 25.13447 | 2330 ft | 202 kts | 347° |
| 2026-04-24 08:06 | 35.38586 | 25.12964 | 2772 ft | 224 kts | 346° |
| 2026-04-24 08:06 | 35.40162 | 25.12412 | 3229 ft | 248 kts | 345° |
| 2026-04-24 08:06 | 35.41862 | 25.11805 | 4072 ft | 258 kts | 345° |
| 2026-04-24 08:06 | 35.43587 | 25.11179 | 5180 ft | 260 kts | 345° |
| 2026-04-24 08:07 | 35.45338 | 25.10543 | 6175 ft | 266 kts | 344° |
| 2026-04-24 08:07 | 35.47132 | 25.09891 | 6937 ft | 273 kts | 343° |
| 2026-04-24 08:07 | 35.48967 | 25.09224 | 7757 ft | 278 kts | 342° |
| 2026-04-24 08:07 | 35.50850 | 25.08541 | 8492 ft | 286 kts | 342° |
| 2026-04-24 08:08 | 35.52786 | 25.07840 | 9220 ft | 294 kts | 342° |
| 2026-04-24 08:08 | 35.54767 | 25.07125 | 9947 ft | 299 kts | 341° |
| 2026-04-24 08:08 | 35.56810 | 25.06385 | 10301 ft | 317 kts | 341° |
| 2026-04-24 08:09 | 35.61303 | 25.04749 | 10918 ft | 348 kts | 341° |
| 2026-04-24 08:09 | 35.63638 | 25.03902 | 11541 ft | 352 kts | 341° |
| 2026-04-24 08:09 | 35.65994 | 25.03045 | 12200 ft | 354 kts | 340° |
| 2026-04-24 08:09 | 35.68367 | 25.02181 | 12860 ft | 357 kts | 340° |
| 2026-04-24 08:10 | 35.70756 | 25.01310 | 13505 ft | 359 kts | 340° |
| 2026-04-24 08:10 | 35.73147 | 25.00376 | 14104 ft | 361 kts | 337° |
| 2026-04-24 08:10 | 35.75515 | 24.99320 | 14649 ft | 363 kts | 334° |
| 2026-04-24 08:10 | 35.77113 | 24.98562 | 15029 ft | 365 kts | 334° |
| 2026-04-24 08:11 | 35.79479 | 24.97407 | 15619 ft | 367 kts | 333° |
| 2026-04-24 08:11 | 35.81824 | 24.96255 | 16201 ft | 369 kts | 333° |
| 2026-04-24 08:11 | 35.84249 | 24.95069 | 16775 ft | 371 kts | 333° |
| 2026-04-24 08:11 | 35.86630 | 24.93923 | 17322 ft | 374 kts | 333° |
| 2026-04-24 08:12 | 35.89064 | 24.92768 | 17873 ft | 376 kts | 333° |
| 2026-04-24 08:12 | 35.91548 | 24.91599 | 18409 ft | 378 kts | 333° |
| 2026-04-24 08:12 | 35.93984 | 24.90453 | 18856 ft | 381 kts | 333° |
| 2026-04-24 08:12 | 35.96469 | 24.89285 | 19299 ft | 384 kts | 333° |
| 2026-04-24 08:13 | 35.98972 | 24.88103 | 19734 ft | 387 kts | 333° |
| 2026-04-24 08:13 | 36.01499 | 24.86908 | 20144 ft | 391 kts | 333° |
| 2026-04-24 08:13 | 36.04040 | 24.85679 | 20566 ft | 392 kts | 329° |
| 2026-04-24 08:13 | 36.06415 | 24.84085 | 20979 ft | 387 kts | 320° |
| 2026-04-24 08:14 | 36.08550 | 24.82079 | 21388 ft | 385 kts | 314° |
| 2026-04-24 08:14 | 36.10645 | 24.79992 | 21821 ft | 388 kts | 314° |
| 2026-04-24 08:14 | 36.12755 | 24.77891 | 22253 ft | 391 kts | 314° |
| 2026-04-24 08:14 | 36.14879 | 24.75782 | 22664 ft | 393 kts | 314° |
| 2026-04-24 08:15 | 36.17020 | 24.73658 | 23073 ft | 396 kts | 314° |
| 2026-04-24 08:15 | 36.19178 | 24.71520 | 23467 ft | 398 kts | 314° |
| 2026-04-24 08:15 | 36.21344 | 24.69371 | 23814 ft | 401 kts | 314° |
| 2026-04-24 08:15 | 36.23524 | 24.67203 | 24145 ft | 403 kts | 314° |
| 2026-04-24 08:16 | 36.25711 | 24.65022 | 24466 ft | 405 kts | 314° |
| 2026-04-24 08:16 | 36.27916 | 24.62822 | 24746 ft | 408 kts | 314° |
| 2026-04-24 08:16 | 36.30137 | 24.60609 | 25065 ft | 410 kts | 314° |
| 2026-04-24 08:16 | 36.32367 | 24.58388 | 25396 ft | 412 kts | 314° |
| 2026-04-24 08:17 | 36.34604 | 24.56160 | 25723 ft | 413 kts | 313° |
| 2026-04-24 08:17 | 36.36849 | 24.53924 | 26046 ft | 415 kts | 313° |
| 2026-04-24 08:17 | 36.39100 | 24.51676 | 26383 ft | 416 kts | 313° |
| 2026-04-24 08:17 | 36.41357 | 24.49414 | 26726 ft | 418 kts | 313° |
| 2026-04-24 08:18 | 36.43620 | 24.47140 | 27049 ft | 419 kts | 313° |
| 2026-04-24 08:18 | 36.45891 | 24.44857 | 27361 ft | 421 kts | 313° |
| 2026-04-24 08:18 | 36.48166 | 24.42570 | 27671 ft | 422 kts | 312° |
| 2026-04-24 08:18 | 36.50457 | 24.40272 | 27977 ft | 424 kts | 312° |
| 2026-04-24 08:19 | 36.52756 | 24.37968 | 28320 ft | 425 kts | 312° |
| 2026-04-24 08:19 | 36.55062 | 24.35651 | 28609 ft | 427 kts | 312° |
| 2026-04-24 08:19 | 36.57373 | 24.33326 | 28904 ft | 428 kts | 312° |
| 2026-04-24 08:19 | 36.59693 | 24.30993 | 29198 ft | 430 kts | 312° |
| 2026-04-24 08:20 | 36.62024 | 24.28649 | 29469 ft | 431 kts | 312° |
| 2026-04-24 08:20 | 36.64361 | 24.26296 | 29738 ft | 433 kts | 311° |
| 2026-04-24 08:20 | 36.66705 | 24.23933 | 30001 ft | 434 kts | 311° |
| 2026-04-24 08:20 | 36.69053 | 24.21565 | 30231 ft | 435 kts | 311° |
| 2026-04-24 08:21 | 36.71405 | 24.19187 | 30479 ft | 435 kts | 311° |
| 2026-04-24 08:21 | 36.73748 | 24.16815 | 30797 ft | 433 kts | 311° |
| 2026-04-24 08:21 | 36.76087 | 24.14447 | 31101 ft | 432 kts | 311° |
| 2026-04-24 08:21 | 36.78417 | 24.12086 | 31413 ft | 431 kts | 311° |
| 2026-04-24 08:22 | 36.80742 | 24.09730 | 31715 ft | 430 kts | 311° |
| 2026-04-24 08:22 | 36.83061 | 24.07376 | 32033 ft | 429 kts | 312° |
| 2026-04-24 08:22 | 36.85374 | 24.05025 | 32274 ft | 430 kts | 313° |
| 2026-04-24 08:22 | 36.87700 | 24.02658 | 32452 ft | 432 kts | 313° |
| 2026-04-24 08:23 | 36.90031 | 24.00284 | 32693 ft | 432 kts | 313° |
| 2026-04-24 08:23 | 36.92360 | 23.97911 | 32955 ft | 432 kts | 313° |
| 2026-04-24 08:23 | 36.94689 | 23.95539 | 33228 ft | 432 kts | 313° |
| 2026-04-24 08:23 | 36.97015 | 23.93167 | 33503 ft | 431 kts | 313° |
| 2026-04-24 08:24 | 36.99308 | 23.90830 | 33771 ft | 430 kts | 313° |
| 2026-04-24 08:24 | 37.01626 | 23.88463 | 33995 ft | 430 kts | 313° |
| 2026-04-24 08:24 | 37.03936 | 23.86104 | 34055 ft | 426 kts | 313° |
| 2026-04-24 08:25 | 37.08505 | 23.81437 | 34057 ft | 423 kts | 313° |
| 2026-04-24 08:25 | 37.13062 | 23.76759 | 34056 ft | 424 kts | 314° |
| 2026-04-24 08:26 | 37.17638 | 23.72048 | 34055 ft | 428 kts | 316° |
| 2026-04-24 08:26 | 37.22259 | 23.67303 | 34056 ft | 430 kts | 316° |
| 2026-04-24 08:27 | 37.26890 | 23.62551 | 34059 ft | 430 kts | 316° |
| 2026-04-24 08:27 | 37.31514 | 23.57789 | 34057 ft | 430 kts | 316° |
| 2026-04-24 08:28 | 37.36131 | 23.53019 | 34059 ft | 430 kts | 316° |
| 2026-04-24 08:28 | 37.40748 | 23.48247 | 34051 ft | 430 kts | 317° |
| 2026-04-24 08:29 | 37.45375 | 23.43459 | 34045 ft | 431 kts | 317° |
| 2026-04-24 08:29 | 37.50006 | 23.38651 | 34048 ft | 432 kts | 318° |
| 2026-04-24 08:30 | 37.54643 | 23.33825 | 34043 ft | 433 kts | 318° |
| 2026-04-24 08:30 | 37.59287 | 23.28990 | 34045 ft | 433 kts | 318° |
| 2026-04-24 08:31 | 37.63932 | 23.24149 | 34044 ft | 433 kts | 318° |
| 2026-04-24 08:31 | 37.68576 | 23.19293 | 34060 ft | 433 kts | 320° |
| 2026-04-24 08:32 | 37.73220 | 23.14430 | 34050 ft | 434 kts | 320° |
| 2026-04-24 08:32 | 37.77876 | 23.09561 | 34045 ft | 435 kts | 320° |
| 2026-04-24 08:33 | 37.82540 | 23.04665 | 34051 ft | 435 kts | 320° |
| 2026-04-24 08:33 | 37.87196 | 22.99763 | 34047 ft | 435 kts | 320° |
| 2026-04-24 08:34 | 37.91855 | 22.94856 | 34052 ft | 436 kts | 320° |
| 2026-04-24 08:34 | 37.96413 | 22.89870 | 34054 ft | 436 kts | 320° |
| 2026-04-24 08:35 | 38.00892 | 22.84593 | 34053 ft | 437 kts | 319° |
| 2026-04-24 08:35 | 38.05331 | 22.79310 | 34055 ft | 438 kts | 319° |
| 2026-04-24 08:36 | 38.09777 | 22.74102 | 34049 ft | 438 kts | 321° |
| 2026-04-24 08:36 | 38.14423 | 22.69117 | 34050 ft | 437 kts | 324° |
| 2026-04-24 08:37 | 38.19162 | 22.64279 | 34052 ft | 437 kts | 324° |
| 2026-04-24 08:37 | 38.23887 | 22.59389 | 34048 ft | 438 kts | 324° |
| 2026-04-24 08:38 | 38.26492 | 22.56655 | 34051 ft | 438 kts | 323° |
| 2026-04-24 08:38 | 38.31203 | 22.51673 | 34065 ft | 437 kts | 323° |
| 2026-04-24 08:39 | 38.35852 | 22.46752 | 34062 ft | 437 kts | 323° |
| 2026-04-24 08:39 | 38.40525 | 22.41796 | 34059 ft | 437 kts | 323° |
| 2026-04-24 08:40 | 38.45195 | 22.36847 | 34066 ft | 436 kts | 323° |
| 2026-04-24 08:40 | 38.49860 | 22.31897 | 34071 ft | 436 kts | 323° |
| 2026-04-24 08:41 | 38.54519 | 22.26942 | 34063 ft | 436 kts | 323° |
| 2026-04-24 08:41 | 38.59174 | 22.21977 | 34061 ft | 435 kts | 323° |
| 2026-04-24 08:42 | 38.63826 | 22.17015 | 34065 ft | 436 kts | 323° |
| 2026-04-24 08:42 | 38.68483 | 22.12041 | 34056 ft | 436 kts | 323° |
| 2026-04-24 08:43 | 38.73129 | 22.07063 | 34059 ft | 435 kts | 323° |
| 2026-04-24 08:43 | 38.77766 | 22.02082 | 34059 ft | 435 kts | 323° |
| 2026-04-24 08:44 | 38.82400 | 21.97093 | 34062 ft | 435 kts | 323° |
| 2026-04-24 08:44 | 38.87031 | 21.92112 | 34063 ft | 434 kts | 323° |
| 2026-04-24 08:45 | 38.91656 | 21.87126 | 34067 ft | 434 kts | 322° |
| 2026-04-24 08:45 | 38.96269 | 21.82139 | 34069 ft | 434 kts | 322° |
| 2026-04-24 08:46 | 39.00888 | 21.77135 | 34073 ft | 433 kts | 322° |
| 2026-04-24 08:46 | 39.05489 | 21.72140 | 34076 ft | 432 kts | 322° |
| 2026-04-24 08:47 | 39.10069 | 21.67169 | 34080 ft | 430 kts | 322° |
| 2026-04-24 08:47 | 39.14639 | 21.62202 | 34083 ft | 430 kts | 322° |
| 2026-04-24 08:48 | 39.19198 | 21.57240 | 34078 ft | 429 kts | 322° |
| 2026-04-24 08:48 | 39.23721 | 21.52298 | 34077 ft | 429 kts | 322° |
| 2026-04-24 08:49 | 39.28266 | 21.47320 | 34078 ft | 429 kts | 322° |
| 2026-04-24 08:49 | 39.32814 | 21.42337 | 34064 ft | 428 kts | 322° |
| 2026-04-24 08:50 | 39.37353 | 21.37351 | 34063 ft | 428 kts | 322° |
| 2026-04-24 08:50 | 39.41895 | 21.32351 | 34064 ft | 429 kts | 322° |
| 2026-04-24 08:51 | 39.46433 | 21.27351 | 34065 ft | 429 kts | 322° |
| 2026-04-24 08:51 | 39.50977 | 21.22345 | 34065 ft | 429 kts | 322° |
| 2026-04-24 08:52 | 39.55515 | 21.17338 | 34058 ft | 429 kts | 322° |
| 2026-04-24 08:52 | 39.60044 | 21.12308 | 34035 ft | 429 kts | 323° |
| 2026-04-24 08:53 | 39.64572 | 21.07283 | 34045 ft | 428 kts | 323° |
| 2026-04-24 08:53 | 39.69097 | 21.02261 | 34050 ft | 428 kts | 323° |
| 2026-04-24 08:54 | 39.73616 | 20.97235 | 34051 ft | 428 kts | 323° |
| 2026-04-24 08:54 | 39.78132 | 20.92194 | 34052 ft | 428 kts | 323° |
| 2026-04-24 08:55 | 39.82645 | 20.87149 | 34048 ft | 428 kts | 323° |
| 2026-04-24 08:55 | 39.87157 | 20.82095 | 34045 ft | 428 kts | 323° |
| 2026-04-24 08:56 | 39.91664 | 20.77043 | 34054 ft | 427 kts | 323° |
| 2026-04-24 08:56 | 39.95419 | 20.72819 | 34059 ft | 425 kts | 323° |
| 2026-04-24 08:57 | 39.99898 | 20.67774 | 34070 ft | 425 kts | 323° |
| 2026-04-24 08:57 | 40.04369 | 20.62732 | 34068 ft | 425 kts | 323° |
| 2026-04-24 08:58 | 40.09081 | 20.58285 | 34056 ft | 417 kts | 337° |
| 2026-04-24 08:58 | 40.14328 | 20.54939 | 34048 ft | 417 kts | 337° |
| 2026-04-24 08:59 | 40.19530 | 20.51612 | 34052 ft | 416 kts | 337° |
| 2026-04-24 08:59 | 40.24726 | 20.48276 | 34054 ft | 416 kts | 337° |
| 2026-04-24 09:00 | 40.29886 | 20.44954 | 34040 ft | 416 kts | 337° |
| 2026-04-24 09:00 | 40.35074 | 20.41605 | 34044 ft | 415 kts | 337° |
| 2026-04-24 09:01 | 40.40254 | 20.38260 | 34052 ft | 415 kts | 337° |
| 2026-04-24 09:01 | 40.45432 | 20.34915 | 34057 ft | 415 kts | 337° |
| 2026-04-24 09:02 | 40.50611 | 20.31552 | 34059 ft | 415 kts | 336° |
| 2026-04-24 09:02 | 40.55781 | 20.28188 | 34055 ft | 415 kts | 336° |
| 2026-04-24 09:03 | 40.60953 | 20.24820 | 34052 ft | 415 kts | 336° |
| 2026-04-24 09:03 | 40.66137 | 20.21454 | 34047 ft | 415 kts | 336° |
| 2026-04-24 09:04 | 40.71322 | 20.18075 | 34054 ft | 416 kts | 336° |
| 2026-04-24 09:04 | 40.76505 | 20.14693 | 34058 ft | 416 kts | 336° |
| 2026-04-24 09:05 | 40.81688 | 20.11300 | 34040 ft | 416 kts | 336° |
| 2026-04-24 09:05 | 40.86859 | 20.07904 | 34060 ft | 415 kts | 336° |
| 2026-04-24 09:06 | 40.92026 | 20.04497 | 34072 ft | 415 kts | 336° |
| 2026-04-24 09:06 | 40.97182 | 20.01093 | 34073 ft | 414 kts | 336° |
| 2026-04-24 09:07 | 41.02365 | 19.97681 | 34256 ft | 418 kts | 336° |
| 2026-04-24 09:07 | 41.04975 | 19.95961 | 34451 ft | 419 kts | 336° |
| 2026-04-24 09:07 | 41.09914 | 19.91806 | 34860 ft | 423 kts | 327° |
| 2026-04-24 09:08 | 41.12299 | 19.89525 | 35053 ft | 423 kts | 327° |
| 2026-04-24 09:08 | 41.14684 | 19.87241 | 35251 ft | 423 kts | 327° |
| 2026-04-24 09:08 | 41.17074 | 19.84952 | 35444 ft | 423 kts | 327° |
| 2026-04-24 09:08 | 41.19463 | 19.82663 | 35633 ft | 423 kts | 327° |
| 2026-04-24 09:09 | 41.21851 | 19.80376 | 35813 ft | 424 kts | 327° |
| 2026-04-24 09:09 | 41.24241 | 19.78083 | 35987 ft | 424 kts | 327° |
| 2026-04-24 09:09 | 41.29020 | 19.73488 | 36083 ft | 424 kts | 327° |
| 2026-04-24 09:10 | 41.33787 | 19.68893 | 36084 ft | 423 kts | 327° |
| 2026-04-24 09:10 | 41.38510 | 19.64335 | 36093 ft | 422 kts | 327° |
| 2026-04-24 09:11 | 41.43264 | 19.59745 | 36097 ft | 422 kts | 327° |
| 2026-04-24 09:11 | 41.48015 | 19.55158 | 36090 ft | 422 kts | 327° |
| 2026-04-24 09:12 | 41.52769 | 19.50552 | 36102 ft | 422 kts | 327° |
| 2026-04-24 09:12 | 41.57513 | 19.45937 | 36089 ft | 422 kts | 327° |
| 2026-04-24 09:13 | 41.62255 | 19.41302 | 36090 ft | 422 kts | 327° |
| 2026-04-24 09:13 | 41.66993 | 19.36676 | 36102 ft | 422 kts | 327° |
| 2026-04-24 09:14 | 41.71742 | 19.32056 | 36097 ft | 422 kts | 327° |
| 2026-04-24 09:14 | 41.76482 | 19.27430 | 36106 ft | 422 kts | 327° |
| 2026-04-24 09:15 | 41.81219 | 19.22780 | 36114 ft | 422 kts | 327° |
| 2026-04-24 09:15 | 41.85941 | 19.18128 | 36115 ft | 421 kts | 327° |
| 2026-04-24 09:16 | 41.90665 | 19.13477 | 36115 ft | 421 kts | 327° |
| 2026-04-24 09:16 | 41.95386 | 19.08831 | 36109 ft | 421 kts | 327° |
| 2026-04-24 09:17 | 42.00105 | 19.04170 | 36112 ft | 421 kts | 327° |
| 2026-04-24 09:17 | 42.04814 | 18.99506 | 36105 ft | 420 kts | 327° |
| 2026-04-24 09:18 | 42.09520 | 18.94833 | 36105 ft | 420 kts | 327° |
| 2026-04-24 09:18 | 42.14218 | 18.90168 | 36107 ft | 420 kts | 327° |
| 2026-04-24 09:19 | 42.18919 | 18.85494 | 36099 ft | 420 kts | 327° |
| 2026-04-24 09:19 | 42.23612 | 18.80816 | 36099 ft | 419 kts | 327° |
| 2026-04-24 09:20 | 42.28304 | 18.76125 | 36071 ft | 419 kts | 327° |
| 2026-04-24 09:20 | 42.33099 | 18.71695 | 36078 ft | 415 kts | 336° |
| 2026-04-24 09:21 | 42.38384 | 18.68640 | 36080 ft | 413 kts | 340° |
| 2026-04-24 09:21 | 42.43697 | 18.65637 | 36080 ft | 414 kts | 340° |
| 2026-04-24 09:22 | 42.48966 | 18.62631 | 36082 ft | 414 kts | 340° |
| 2026-04-24 09:22 | 42.54277 | 18.59601 | 36068 ft | 415 kts | 340° |
| 2026-04-24 09:23 | 42.59597 | 18.56569 | 36064 ft | 415 kts | 340° |
| 2026-04-24 09:23 | 42.64925 | 18.53524 | 36069 ft | 416 kts | 340° |
| 2026-04-24 09:24 | 42.70258 | 18.50469 | 36071 ft | 416 kts | 340° |
| 2026-04-24 09:24 | 42.75593 | 18.47410 | 36071 ft | 417 kts | 340° |
| 2026-04-24 09:25 | 42.80935 | 18.44338 | 36072 ft | 417 kts | 340° |
| 2026-04-24 09:25 | 42.86283 | 18.41252 | 36057 ft | 417 kts | 340° |
| 2026-04-24 09:26 | 42.91633 | 18.38166 | 36072 ft | 418 kts | 340° |
| 2026-04-24 09:26 | 42.96988 | 18.35074 | 36074 ft | 418 kts | 340° |
| 2026-04-24 09:27 | 43.02349 | 18.31976 | 36080 ft | 419 kts | 340° |
| 2026-04-24 09:27 | 43.07716 | 18.28865 | 36084 ft | 419 kts | 340° |
| 2026-04-24 09:28 | 43.13083 | 18.25744 | 36084 ft | 419 kts | 340° |
| 2026-04-24 09:28 | 43.18453 | 18.22618 | 36097 ft | 419 kts | 341° |
| 2026-04-24 09:29 | 43.23820 | 18.19481 | 36104 ft | 419 kts | 341° |
| 2026-04-24 09:29 | 43.29191 | 18.16339 | 36107 ft | 420 kts | 341° |
| 2026-04-24 09:30 | 43.34561 | 18.13199 | 36110 ft | 420 kts | 341° |
| 2026-04-24 09:30 | 43.39931 | 18.10049 | 36115 ft | 420 kts | 341° |
| 2026-04-24 09:31 | 43.45302 | 18.06891 | 36116 ft | 420 kts | 341° |
| 2026-04-24 09:31 | 43.50667 | 18.03723 | 36117 ft | 420 kts | 341° |
| 2026-04-24 09:32 | 43.56044 | 18.00553 | 36126 ft | 420 kts | 341° |
| 2026-04-24 09:32 | 43.61416 | 17.97382 | 36132 ft | 420 kts | 341° |
| 2026-04-24 09:33 | 43.66781 | 17.94195 | 36136 ft | 420 kts | 341° |
| 2026-04-24 09:33 | 43.72149 | 17.91010 | 36131 ft | 420 kts | 341° |
| 2026-04-24 09:34 | 43.77519 | 17.87826 | 36129 ft | 420 kts | 341° |
| 2026-04-24 09:34 | 43.82809 | 17.84371 | 36125 ft | 425 kts | 332° |
| 2026-04-24 09:35 | 43.87790 | 17.79956 | 36131 ft | 425 kts | 332° |
| 2026-04-24 09:35 | 43.92778 | 17.75550 | 36136 ft | 425 kts | 333° |
| 2026-04-24 09:36 | 43.97768 | 17.71146 | 36136 ft | 425 kts | 332° |
| 2026-04-24 09:36 | 44.02755 | 17.66725 | 36140 ft | 425 kts | 332° |
| 2026-04-24 09:37 | 44.07733 | 17.62304 | 36126 ft | 425 kts | 333° |
| 2026-04-24 09:37 | 44.12716 | 17.57880 | 36144 ft | 425 kts | 333° |
| 2026-04-24 09:38 | 44.17695 | 17.53446 | 36152 ft | 425 kts | 333° |
| 2026-04-24 09:38 | 44.22666 | 17.48995 | 36126 ft | 424 kts | 332° |
| 2026-04-24 09:39 | 44.27614 | 17.44472 | 36137 ft | 426 kts | 332° |
| 2026-04-24 09:39 | 44.32534 | 17.39882 | 36135 ft | 426 kts | 332° |
| 2026-04-24 09:40 | 44.37423 | 17.35317 | 36143 ft | 425 kts | 332° |
| 2026-04-24 09:40 | 44.42350 | 17.30739 | 36147 ft | 425 kts | 332° |
| 2026-04-24 09:41 | 44.47279 | 17.26169 | 36141 ft | 425 kts | 332° |
| 2026-04-24 09:41 | 44.52204 | 17.21567 | 36141 ft | 426 kts | 331° |
| 2026-04-24 09:42 | 44.56328 | 17.17692 | 36137 ft | 426 kts | 331° |
| 2026-04-24 09:42 | 44.61250 | 17.13068 | 36137 ft | 426 kts | 332° |
| 2026-04-24 09:43 | 44.66177 | 17.08453 | 36146 ft | 426 kts | 332° |
| 2026-04-24 09:43 | 44.71106 | 17.03831 | 36144 ft | 426 kts | 332° |
| 2026-04-24 09:44 | 44.76027 | 16.99191 | 36144 ft | 426 kts | 331° |
| 2026-04-24 09:44 | 44.80943 | 16.94527 | 36147 ft | 426 kts | 331° |
| 2026-04-24 09:45 | 44.85829 | 16.89903 | 36141 ft | 426 kts | 332° |
| 2026-04-24 09:45 | 44.90775 | 16.85219 | 36154 ft | 426 kts | 332° |
| 2026-04-24 09:46 | 44.95650 | 16.80578 | 36156 ft | 425 kts | 332° |
| 2026-04-24 09:46 | 45.00562 | 16.75922 | 36161 ft | 425 kts | 332° |
| 2026-04-24 09:47 | 45.05483 | 16.71284 | 36163 ft | 425 kts | 332° |
| 2026-04-24 09:47 | 45.10401 | 16.66640 | 36151 ft | 425 kts | 332° |
| 2026-04-24 09:48 | 45.15305 | 16.61980 | 36155 ft | 425 kts | 332° |
| 2026-04-24 09:48 | 45.20204 | 16.57316 | 36166 ft | 424 kts | 332° |
| 2026-04-24 09:49 | 45.25102 | 16.52647 | 36164 ft | 424 kts | 332° |
| 2026-04-24 09:49 | 45.29987 | 16.47961 | 36165 ft | 424 kts | 332° |
| 2026-04-24 09:50 | 45.34870 | 16.43266 | 36146 ft | 424 kts | 332° |
| 2026-04-24 09:50 | 45.39746 | 16.38568 | 36158 ft | 423 kts | 331° |
| 2026-04-24 09:51 | 45.44609 | 16.33872 | 36162 ft | 422 kts | 331° |
| 2026-04-24 09:51 | 45.49464 | 16.29178 | 36169 ft | 421 kts | 331° |
| 2026-04-24 09:52 | 45.54312 | 16.24490 | 36163 ft | 421 kts | 332° |
| 2026-04-24 09:52 | 45.59160 | 16.19793 | 36146 ft | 421 kts | 331° |
| 2026-04-24 09:53 | 45.63990 | 16.15084 | 36150 ft | 420 kts | 331° |
| 2026-04-24 09:53 | 45.68820 | 16.10370 | 36150 ft | 420 kts | 331° |
| 2026-04-24 09:54 | 45.73650 | 16.05651 | 36175 ft | 420 kts | 331° |
| 2026-04-24 09:54 | 45.78473 | 16.00921 | 36173 ft | 420 kts | 331° |
| 2026-04-24 09:55 | 45.83299 | 15.96190 | 36171 ft | 420 kts | 331° |
| 2026-04-24 09:55 | 45.88114 | 15.91451 | 36132 ft | 420 kts | 331° |
| 2026-04-24 09:56 | 45.92925 | 15.86702 | 36145 ft | 419 kts | 331° |
| 2026-04-24 09:56 | 45.97728 | 15.81950 | 36149 ft | 419 kts | 331° |
| 2026-04-24 09:57 | 46.02506 | 15.77230 | 36148 ft | 419 kts | 331° |
| 2026-04-24 09:57 | 46.07338 | 15.72440 | 36146 ft | 419 kts | 331° |
| 2026-04-24 09:58 | 46.12101 | 15.67703 | 36143 ft | 418 kts | 331° |
| 2026-04-24 09:58 | 46.16916 | 15.62895 | 36146 ft | 419 kts | 328° |
| 2026-04-24 09:59 | 46.21433 | 15.57512 | 36149 ft | 421 kts | 326° |
| 2026-04-24 09:59 | 46.25929 | 15.52086 | 36148 ft | 421 kts | 326° |
| 2026-04-24 10:00 | 46.30392 | 15.46697 | 36142 ft | 421 kts | 326° |
| 2026-04-24 10:00 | 46.34880 | 15.41258 | 36139 ft | 421 kts | 326° |
| 2026-04-24 10:01 | 46.39365 | 15.35808 | 36121 ft | 421 kts | 326° |
| 2026-04-24 10:01 | 46.43853 | 15.30349 | 36128 ft | 421 kts | 325° |
| 2026-04-24 10:02 | 46.48329 | 15.24874 | 36123 ft | 421 kts | 325° |
| 2026-04-24 10:02 | 46.52836 | 15.19359 | 36120 ft | 421 kts | 325° |
| 2026-04-24 10:03 | 46.57286 | 15.13904 | 36118 ft | 421 kts | 325° |
| 2026-04-24 10:03 | 46.61759 | 15.08407 | 36108 ft | 421 kts | 325° |
| 2026-04-24 10:04 | 46.66233 | 15.02899 | 36104 ft | 421 kts | 325° |
| 2026-04-24 10:04 | 46.70700 | 14.97380 | 36110 ft | 421 kts | 325° |
| 2026-04-24 10:05 | 46.75166 | 14.91858 | 36113 ft | 421 kts | 325° |
| 2026-04-24 10:05 | 46.79631 | 14.86337 | 36114 ft | 421 kts | 325° |
| 2026-04-24 10:06 | 46.86316 | 14.78020 | 36099 ft | 421 kts | 324° |
| 2026-04-24 10:07 | 46.90776 | 14.72458 | 36105 ft | 421 kts | 324° |
| 2026-04-24 10:07 | 46.95231 | 14.66898 | 36112 ft | 421 kts | 324° |
| 2026-04-24 10:08 | 46.99683 | 14.61319 | 36107 ft | 421 kts | 324° |
| 2026-04-24 10:08 | 47.04132 | 14.55719 | 36123 ft | 421 kts | 324° |
| 2026-04-24 10:09 | 47.08577 | 14.50133 | 36110 ft | 421 kts | 324° |
| 2026-04-24 10:09 | 47.13020 | 14.44542 | 36115 ft | 421 kts | 324° |
| 2026-04-24 10:10 | 47.17432 | 14.38957 | 36121 ft | 421 kts | 324° |
| 2026-04-24 10:10 | 47.21895 | 14.33307 | 36124 ft | 421 kts | 324° |
| 2026-04-24 10:11 | 47.26303 | 14.27716 | 36130 ft | 421 kts | 324° |
| 2026-04-24 10:11 | 47.30728 | 14.22070 | 36135 ft | 421 kts | 324° |
| 2026-04-24 10:12 | 47.35158 | 14.16433 | 36146 ft | 421 kts | 323° |
| 2026-04-24 10:12 | 47.39584 | 14.10787 | 36159 ft | 420 kts | 323° |
| 2026-04-24 10:13 | 47.43997 | 14.05120 | 36168 ft | 420 kts | 323° |
| 2026-04-24 10:13 | 47.48416 | 13.99444 | 36176 ft | 420 kts | 323° |
| 2026-04-24 10:14 | 47.52816 | 13.93773 | 36178 ft | 419 kts | 323° |
| 2026-04-24 10:14 | 47.57217 | 13.88096 | 36173 ft | 420 kts | 323° |
| 2026-04-24 10:15 | 47.61609 | 13.82415 | 36185 ft | 419 kts | 323° |
| 2026-04-24 10:15 | 47.65991 | 13.76731 | 36191 ft | 418 kts | 323° |
| 2026-04-24 10:16 | 47.70363 | 13.71054 | 36199 ft | 417 kts | 323° |
| 2026-04-24 10:16 | 47.74729 | 13.65378 | 36200 ft | 417 kts | 323° |
| 2026-04-24 10:17 | 47.79089 | 13.59680 | 36183 ft | 417 kts | 323° |
| 2026-04-24 10:17 | 47.83439 | 13.53995 | 36178 ft | 417 kts | 323° |
| 2026-04-24 10:18 | 47.87799 | 13.48281 | 36191 ft | 417 kts | 323° |
| 2026-04-24 10:18 | 47.92150 | 13.42563 | 36201 ft | 417 kts | 322° |
| 2026-04-24 10:19 | 47.96495 | 13.36835 | 36205 ft | 417 kts | 322° |
| 2026-04-24 10:19 | 48.00826 | 13.31103 | 36207 ft | 416 kts | 322° |
| 2026-04-24 10:20 | 48.05159 | 13.25367 | 36183 ft | 416 kts | 322° |
| 2026-04-24 10:20 | 48.09497 | 13.19614 | 36186 ft | 417 kts | 322° |
| 2026-04-24 10:21 | 48.13836 | 13.13852 | 36186 ft | 418 kts | 322° |
| 2026-04-24 10:21 | 48.18183 | 13.08053 | 36190 ft | 418 kts | 322° |
| 2026-04-24 10:22 | 48.22519 | 13.02249 | 36193 ft | 418 kts | 322° |
| 2026-04-24 10:22 | 48.26940 | 12.96590 | 36195 ft | 417 kts | 324° |
| 2026-04-24 10:23 | 48.31471 | 12.91172 | 36176 ft | 417 kts | 324° |
| 2026-04-24 10:23 | 48.36015 | 12.85721 | 36184 ft | 419 kts | 324° |
| 2026-04-24 10:24 | 48.40537 | 12.80191 | 36197 ft | 419 kts | 324° |
| 2026-04-24 10:24 | 48.45041 | 12.74628 | 36198 ft | 419 kts | 324° |
| 2026-04-24 10:25 | 48.49548 | 12.69054 | 36197 ft | 419 kts | 324° |
| 2026-04-24 10:25 | 48.54050 | 12.63487 | 36198 ft | 419 kts | 324° |
| 2026-04-24 10:26 | 48.57787 | 12.58851 | 36198 ft | 418 kts | 324° |
| 2026-04-24 10:26 | 48.62287 | 12.53273 | 36200 ft | 418 kts | 324° |
| 2026-04-24 10:27 | 48.66785 | 12.47689 | 36203 ft | 418 kts | 323° |
| 2026-04-24 10:27 | 48.71269 | 12.42089 | 36201 ft | 418 kts | 323° |
| 2026-04-24 10:28 | 48.75745 | 12.36493 | 36201 ft | 417 kts | 323° |
| 2026-04-24 10:28 | 48.80217 | 12.30880 | 36181 ft | 417 kts | 323° |
| 2026-04-24 10:29 | 48.84688 | 12.25265 | 36177 ft | 418 kts | 323° |
| 2026-04-24 10:29 | 48.89169 | 12.19632 | 36182 ft | 418 kts | 323° |
| 2026-04-24 10:30 | 48.93640 | 12.13984 | 36185 ft | 418 kts | 323° |
| 2026-04-24 10:30 | 48.98109 | 12.08317 | 36186 ft | 418 kts | 323° |
| 2026-04-24 10:31 | 49.02576 | 12.02660 | 36184 ft | 418 kts | 323° |
| 2026-04-24 10:31 | 49.07043 | 11.96990 | 36170 ft | 418 kts | 322° |
| 2026-04-24 10:32 | 49.11504 | 11.91299 | 36162 ft | 418 kts | 322° |
| 2026-04-24 10:32 | 49.15969 | 11.85588 | 36173 ft | 419 kts | 322° |
| 2026-04-24 10:33 | 49.20422 | 11.79867 | 36181 ft | 418 kts | 322° |
| 2026-04-24 10:33 | 49.24874 | 11.74151 | 36194 ft | 418 kts | 322° |
| 2026-04-24 10:34 | 49.29326 | 11.68428 | 36188 ft | 417 kts | 322° |
| 2026-04-24 10:34 | 49.33738 | 11.62742 | 36182 ft | 417 kts | 322° |
| 2026-04-24 10:35 | 49.38178 | 11.57006 | 36171 ft | 418 kts | 322° |
| 2026-04-24 10:35 | 49.42620 | 11.51241 | 36168 ft | 418 kts | 321° |
| 2026-04-24 10:36 | 49.47064 | 11.45457 | 36174 ft | 418 kts | 321° |
| 2026-04-24 10:36 | 49.51503 | 11.39675 | 36171 ft | 418 kts | 321° |
| 2026-04-24 10:37 | 49.55942 | 11.33876 | 36174 ft | 418 kts | 321° |
| 2026-04-24 10:37 | 49.60377 | 11.28078 | 36160 ft | 418 kts | 321° |
| 2026-04-24 10:38 | 49.64816 | 11.22255 | 36169 ft | 419 kts | 321° |
| 2026-04-24 10:38 | 49.69258 | 11.16404 | 36178 ft | 420 kts | 320° |
| 2026-04-24 10:39 | 49.73693 | 11.10535 | 36178 ft | 420 kts | 320° |
| 2026-04-24 10:39 | 49.78126 | 11.04660 | 36181 ft | 420 kts | 320° |
| 2026-04-24 10:40 | 49.82568 | 10.98777 | 36176 ft | 420 kts | 320° |
| 2026-04-24 10:40 | 49.87007 | 10.92892 | 36174 ft | 420 kts | 320° |
| 2026-04-24 10:41 | 49.91446 | 10.86989 | 36175 ft | 421 kts | 320° |
| 2026-04-24 10:41 | 49.95879 | 10.81067 | 36179 ft | 420 kts | 320° |
| 2026-04-24 10:42 | 50.00310 | 10.75124 | 36193 ft | 420 kts | 320° |
| 2026-04-24 10:42 | 50.04734 | 10.69183 | 36190 ft | 420 kts | 320° |
| 2026-04-24 10:43 | 50.09159 | 10.63231 | 36201 ft | 420 kts | 319° |
| 2026-04-24 10:43 | 50.13577 | 10.57271 | 36186 ft | 420 kts | 319° |
| 2026-04-24 10:44 | 50.17972 | 10.51329 | 36192 ft | 421 kts | 319° |
| 2026-04-24 10:44 | 50.22417 | 10.45300 | 36196 ft | 421 kts | 319° |
| 2026-04-24 10:45 | 50.26803 | 10.39336 | 36195 ft | 421 kts | 319° |
| 2026-04-24 10:45 | 50.31214 | 10.33326 | 36196 ft | 421 kts | 319° |
| 2026-04-24 10:46 | 50.35568 | 10.27208 | 36204 ft | 420 kts | 313° |
| 2026-04-24 10:46 | 50.39424 | 10.20337 | 36196 ft | 420 kts | 311° |
| 2026-04-24 10:47 | 50.43275 | 10.13455 | 36207 ft | 419 kts | 310° |
| 2026-04-24 10:47 | 50.47122 | 10.06572 | 36209 ft | 420 kts | 310° |
| 2026-04-24 10:48 | 50.50964 | 9.99669 | 36208 ft | 420 kts | 310° |
| 2026-04-24 10:48 | 50.54797 | 9.92740 | 36216 ft | 420 kts | 310° |
| 2026-04-24 10:49 | 50.58635 | 9.85816 | 36220 ft | 420 kts | 310° |
| 2026-04-24 10:49 | 50.62469 | 9.78881 | 36215 ft | 420 kts | 310° |
| 2026-04-24 10:50 | 50.66293 | 9.71928 | 36222 ft | 420 kts | 309° |
| 2026-04-24 10:50 | 50.70122 | 9.64940 | 36221 ft | 421 kts | 309° |
| 2026-04-24 10:51 | 50.73940 | 9.57942 | 36220 ft | 421 kts | 309° |
| 2026-04-24 10:51 | 50.77686 | 9.50834 | 36225 ft | 421 kts | 308° |
| 2026-04-24 10:52 | 50.81389 | 9.43664 | 36227 ft | 421 kts | 308° |
| 2026-04-24 10:52 | 50.85088 | 9.36484 | 36244 ft | 421 kts | 307° |
| 2026-04-24 10:53 | 50.88792 | 9.29317 | 36238 ft | 421 kts | 307° |
| 2026-04-24 10:53 | 50.92500 | 9.22160 | 36242 ft | 421 kts | 307° |
| 2026-04-24 10:54 | 50.96206 | 9.14969 | 36250 ft | 421 kts | 307° |
| 2026-04-24 10:54 | 50.99903 | 9.07768 | 36252 ft | 420 kts | 307° |
| 2026-04-24 10:55 | 51.03595 | 9.00570 | 36250 ft | 420 kts | 307° |
| 2026-04-24 10:55 | 51.07277 | 8.93372 | 36247 ft | 420 kts | 307° |
| 2026-04-24 10:56 | 51.10948 | 8.86160 | 36243 ft | 419 kts | 307° |
| 2026-04-24 10:56 | 51.14617 | 8.78939 | 36237 ft | 419 kts | 307° |
| 2026-04-24 10:57 | 51.18252 | 8.71768 | 36226 ft | 419 kts | 306° |
| 2026-04-24 10:57 | 51.21897 | 8.64524 | 36240 ft | 419 kts | 306° |
| 2026-04-24 10:58 | 51.25548 | 8.57268 | 36239 ft | 419 kts | 306° |
| 2026-04-24 10:58 | 51.29193 | 8.50013 | 36243 ft | 419 kts | 306° |
| 2026-04-24 10:59 | 51.32820 | 8.42727 | 36263 ft | 418 kts | 304° |
| 2026-04-24 10:59 | 51.36214 | 8.35188 | 36262 ft | 417 kts | 301° |
| 2026-04-24 11:00 | 51.39441 | 8.27475 | 36261 ft | 417 kts | 301° |
| 2026-04-24 11:00 | 51.42668 | 8.19765 | 36267 ft | 417 kts | 301° |
| 2026-04-24 11:01 | 51.45946 | 8.12087 | 36281 ft | 417 kts | 301° |
| 2026-04-24 11:01 | 51.49230 | 8.04420 | 36282 ft | 417 kts | 301° |
| 2026-04-24 11:02 | 51.52503 | 7.96724 | 36279 ft | 417 kts | 301° |
| 2026-04-24 11:02 | 51.55763 | 7.89026 | 36298 ft | 417 kts | 300° |
| 2026-04-24 11:03 | 51.59016 | 7.81314 | 36297 ft | 416 kts | 300° |
| 2026-04-24 11:03 | 51.62260 | 7.73603 | 36289 ft | 416 kts | 300° |
| 2026-04-24 11:04 | 51.65498 | 7.65897 | 36283 ft | 416 kts | 300° |
| 2026-04-24 11:04 | 51.68732 | 7.58178 | 36280 ft | 416 kts | 300° |
| 2026-04-24 11:05 | 51.71960 | 7.50430 | 36285 ft | 416 kts | 300° |
| 2026-04-24 11:05 | 51.75186 | 7.42677 | 36295 ft | 416 kts | 300° |
| 2026-04-24 11:06 | 51.78391 | 7.34966 | 36298 ft | 416 kts | 300° |
| 2026-04-24 11:06 | 51.81612 | 7.27190 | 36305 ft | 416 kts | 299° |
| 2026-04-24 11:07 | 51.86431 | 7.15489 | 36312 ft | 417 kts | 299° |
| 2026-04-24 11:07 | 51.89658 | 7.07624 | 36306 ft | 417 kts | 299° |
| 2026-04-24 11:08 | 51.92836 | 6.99854 | 36307 ft | 416 kts | 299° |
| 2026-04-24 11:08 | 51.96034 | 6.92027 | 36306 ft | 416 kts | 299° |
| 2026-04-24 11:09 | 51.99227 | 6.84187 | 36313 ft | 416 kts | 298° |
| 2026-04-24 11:09 | 52.02405 | 6.76323 | 36297 ft | 417 kts | 298° |
| 2026-04-24 11:10 | 52.05542 | 6.68400 | 36292 ft | 417 kts | 297° |
| 2026-04-24 11:10 | 52.08637 | 6.60430 | 36288 ft | 417 kts | 297° |
| 2026-04-24 11:11 | 52.11732 | 6.52450 | 36300 ft | 417 kts | 297° |
| 2026-04-24 11:11 | 52.14825 | 6.44471 | 36297 ft | 417 kts | 297° |
| 2026-04-24 11:12 | 52.17914 | 6.36478 | 36307 ft | 417 kts | 297° |
| 2026-04-24 11:12 | 52.20501 | 6.29774 | 36298 ft | 417 kts | 297° |
| 2026-04-24 11:13 | 52.23595 | 6.21752 | 36291 ft | 418 kts | 296° |
| 2026-04-24 11:13 | 52.26672 | 6.13712 | 36291 ft | 418 kts | 296° |
| 2026-04-24 11:14 | 52.29744 | 6.05655 | 36296 ft | 418 kts | 296° |
| 2026-04-24 11:14 | 52.32797 | 5.97648 | 36296 ft | 418 kts | 296° |
| 2026-04-24 11:15 | 52.35868 | 5.89577 | 36311 ft | 418 kts | 296° |
| 2026-04-24 11:15 | 52.38935 | 5.81474 | 36317 ft | 419 kts | 296° |
| 2026-04-24 11:16 | 52.41992 | 5.73364 | 36318 ft | 419 kts | 296° |
| 2026-04-24 11:16 | 52.45045 | 5.65239 | 36322 ft | 419 kts | 296° |
| 2026-04-24 11:17 | 52.48093 | 5.57106 | 36338 ft | 419 kts | 296° |
| 2026-04-24 11:17 | 52.51137 | 5.48960 | 36330 ft | 419 kts | 296° |
| 2026-04-24 11:18 | 52.54175 | 5.40796 | 36333 ft | 419 kts | 296° |
| 2026-04-24 11:18 | 52.57210 | 5.32620 | 36334 ft | 419 kts | 296° |
| 2026-04-24 11:19 | 52.60246 | 5.24433 | 36330 ft | 419 kts | 296° |
| 2026-04-24 11:19 | 52.63275 | 5.16223 | 36329 ft | 419 kts | 295° |
| 2026-04-24 11:20 | 52.66293 | 5.08002 | 36350 ft | 419 kts | 295° |
| 2026-04-24 11:20 | 52.69308 | 4.99775 | 36366 ft | 419 kts | 296° |
| 2026-04-24 11:21 | 52.72300 | 4.91582 | 36354 ft | 420 kts | 295° |
| 2026-04-24 11:21 | 52.75308 | 4.83330 | 36362 ft | 420 kts | 295° |
| 2026-04-24 11:22 | 52.78318 | 4.75051 | 36360 ft | 420 kts | 295° |
| 2026-04-24 11:22 | 52.81315 | 4.66757 | 36344 ft | 420 kts | 295° |
| 2026-04-24 11:23 | 52.84307 | 4.58439 | 36346 ft | 420 kts | 295° |
| 2026-04-24 11:23 | 52.87291 | 4.50123 | 36349 ft | 420 kts | 295° |
| 2026-04-24 11:24 | 52.90273 | 4.41793 | 36358 ft | 420 kts | 295° |
| 2026-04-24 11:24 | 52.93249 | 4.33456 | 36374 ft | 420 kts | 295° |
| 2026-04-24 11:25 | 52.96222 | 4.25106 | 36369 ft | 421 kts | 295° |
| 2026-04-24 11:25 | 52.99187 | 4.16733 | 36371 ft | 421 kts | 295° |
| 2026-04-24 11:26 | 53.02149 | 4.08351 | 36371 ft | 421 kts | 295° |
| 2026-04-24 11:26 | 53.05108 | 3.99966 | 36378 ft | 421 kts | 295° |
| 2026-04-24 11:27 | 53.08067 | 3.91545 | 36369 ft | 422 kts | 295° |
| 2026-04-24 11:27 | 53.11013 | 3.83105 | 36369 ft | 422 kts | 295° |
| 2026-04-24 11:28 | 53.13962 | 3.74650 | 36370 ft | 422 kts | 295° |
| 2026-04-24 11:28 | 53.16882 | 3.66238 | 36366 ft | 422 kts | 295° |
| 2026-04-24 11:29 | 53.19814 | 3.57760 | 36367 ft | 422 kts | 295° |
| 2026-04-24 11:29 | 53.22743 | 3.49257 | 36380 ft | 423 kts | 295° |
| 2026-04-24 11:30 | 53.25693 | 3.40735 | 36363 ft | 424 kts | 296° |
| 2026-04-24 11:30 | 53.28865 | 3.32391 | 36361 ft | 426 kts | 299° |
| 2026-04-24 11:31 | 53.32150 | 3.24130 | 36362 ft | 427 kts | 299° |
| 2026-04-24 11:31 | 53.35396 | 3.15827 | 36368 ft | 427 kts | 298° |
| 2026-04-24 11:32 | 53.38587 | 3.07460 | 36389 ft | 426 kts | 298° |
| 2026-04-24 11:32 | 53.41771 | 2.99058 | 36378 ft | 427 kts | 298° |
| 2026-04-24 11:33 | 53.44954 | 2.90654 | 36378 ft | 427 kts | 298° |
| 2026-04-24 11:33 | 53.48146 | 2.82244 | 36379 ft | 427 kts | 298° |
| 2026-04-24 11:34 | 53.51332 | 2.73813 | 36377 ft | 427 kts | 298° |
| 2026-04-24 11:34 | 53.54500 | 2.65376 | 36383 ft | 427 kts | 298° |
| 2026-04-24 11:35 | 53.57671 | 2.56930 | 36397 ft | 427 kts | 298° |
| 2026-04-24 11:35 | 53.60839 | 2.48457 | 36393 ft | 428 kts | 298° |
| 2026-04-24 11:36 | 53.64004 | 2.39961 | 36390 ft | 428 kts | 298° |
| 2026-04-24 11:36 | 53.67160 | 2.31470 | 36389 ft | 428 kts | 298° |
| 2026-04-24 11:37 | 53.70309 | 2.22954 | 36397 ft | 428 kts | 298° |
| 2026-04-24 11:37 | 53.73441 | 2.14423 | 36401 ft | 428 kts | 298° |
| 2026-04-24 11:38 | 53.76584 | 2.05878 | 36409 ft | 428 kts | 299° |
| 2026-04-24 11:38 | 53.79727 | 1.97326 | 36400 ft | 428 kts | 299° |
| 2026-04-24 11:39 | 53.82860 | 1.88734 | 36395 ft | 429 kts | 298° |
| 2026-04-24 11:39 | 53.85980 | 1.80135 | 36398 ft | 429 kts | 298° |
| 2026-04-24 11:40 | 53.89099 | 1.71520 | 36398 ft | 429 kts | 298° |
| 2026-04-24 11:40 | 53.92211 | 1.62894 | 36401 ft | 429 kts | 298° |
| 2026-04-24 11:41 | 53.95329 | 1.54240 | 36404 ft | 429 kts | 299° |
| 2026-04-24 11:41 | 53.98433 | 1.45583 | 36404 ft | 429 kts | 298° |
| 2026-04-24 11:42 | 54.01533 | 1.36904 | 36407 ft | 430 kts | 299° |
| 2026-04-24 11:42 | 54.04625 | 1.28197 | 36400 ft | 430 kts | 298° |
| 2026-04-24 11:43 | 54.07716 | 1.19483 | 36405 ft | 430 kts | 298° |
| 2026-04-24 11:43 | 54.10805 | 1.10758 | 36407 ft | 430 kts | 298° |
| 2026-04-24 11:44 | 54.13888 | 1.02021 | 36409 ft | 430 kts | 299° |
| 2026-04-24 11:44 | 54.16966 | 0.93269 | 36405 ft | 430 kts | 299° |
| 2026-04-24 11:45 | 54.20026 | 0.84490 | 36407 ft | 430 kts | 299° |
| 2026-04-24 11:45 | 54.23089 | 0.75698 | 36407 ft | 430 kts | 299° |
| 2026-04-24 11:46 | 54.26149 | 0.66904 | 36406 ft | 431 kts | 299° |
| 2026-04-24 11:46 | 54.29199 | 0.58079 | 36406 ft | 431 kts | 299° |
| 2026-04-24 11:47 | 54.32242 | 0.49250 | 36408 ft | 431 kts | 300° |
| 2026-04-24 11:47 | 54.35264 | 0.40456 | 36408 ft | 431 kts | 300° |
| 2026-04-24 11:48 | 54.38319 | 0.31532 | 36404 ft | 431 kts | 300° |
| 2026-04-24 11:48 | 54.41327 | 0.22699 | 36405 ft | 431 kts | 300° |
| 2026-04-24 11:49 | 54.44349 | 0.13800 | 36406 ft | 431 kts | 300° |
| 2026-04-24 11:49 | 54.47373 | 0.04894 | 36407 ft | 431 kts | 299° |
| 2026-04-24 11:50 | 54.50387 | -0.04030 | 36407 ft | 431 kts | 300° |
| 2026-04-24 11:50 | 54.53394 | -0.12980 | 36401 ft | 432 kts | 300° |
| 2026-04-24 11:51 | 54.56398 | -0.21952 | 36395 ft | 433 kts | 300° |
| 2026-04-24 11:51 | 54.59398 | -0.30942 | 36395 ft | 433 kts | 300° |
| 2026-04-24 11:52 | 54.62394 | -0.39949 | 36399 ft | 433 kts | 300° |
| 2026-04-24 11:52 | 54.65381 | -0.48978 | 36398 ft | 433 kts | 300° |
| 2026-04-24 11:53 | 54.68361 | -0.58018 | 36399 ft | 433 kts | 300° |
| 2026-04-24 11:53 | 54.71342 | -0.67066 | 36399 ft | 433 kts | 300° |
| 2026-04-24 11:54 | 54.74311 | -0.76132 | 36400 ft | 433 kts | 300° |
| 2026-04-24 11:54 | 54.77271 | -0.85210 | 36398 ft | 433 kts | 300° |
| 2026-04-24 11:55 | 54.80227 | -0.94308 | 36389 ft | 433 kts | 300° |
| 2026-04-24 11:55 | 54.81707 | -0.98865 | 36232 ft | 435 kts | 300° |
| 2026-04-24 11:55 | 54.83190 | -1.03437 | 35982 ft | 434 kts | 300° |
| 2026-04-24 11:56 | 54.84643 | -1.07925 | 35740 ft | 432 kts | 300° |
| 2026-04-24 11:56 | 54.86121 | -1.12516 | 35456 ft | 429 kts | 301° |
| 2026-04-24 11:56 | 54.87568 | -1.17025 | 34962 ft | 426 kts | 301° |
| 2026-04-24 11:56 | 54.88989 | -1.21453 | 34444 ft | 424 kts | 301° |
| 2026-04-24 11:57 | 54.90441 | -1.25979 | 33875 ft | 422 kts | 301° |
| 2026-04-24 11:57 | 54.91841 | -1.30354 | 33380 ft | 418 kts | 301° |
| 2026-04-24 11:57 | 54.93246 | -1.34758 | 32870 ft | 415 kts | 301° |
| 2026-04-24 11:57 | 54.94637 | -1.39130 | 32374 ft | 412 kts | 300° |
| 2026-04-24 11:58 | 54.96017 | -1.43475 | 31887 ft | 409 kts | 300° |
| 2026-04-24 11:58 | 54.97386 | -1.47788 | 31402 ft | 406 kts | 300° |
| 2026-04-24 11:58 | 54.98746 | -1.52072 | 30941 ft | 403 kts | 300° |
| 2026-04-24 11:58 | 55.00093 | -1.56323 | 30460 ft | 400 kts | 300° |
| 2026-04-24 11:59 | 55.01430 | -1.60543 | 29958 ft | 396 kts | 300° |
| 2026-04-24 11:59 | 55.02747 | -1.64718 | 29517 ft | 391 kts | 300° |
| 2026-04-24 11:59 | 55.04045 | -1.68847 | 29100 ft | 385 kts | 301° |
| 2026-04-24 11:59 | 55.05321 | -1.72914 | 28682 ft | 380 kts | 301° |
| 2026-04-24 12:00 | 55.06159 | -1.75589 | 28402 ft | 377 kts | 301° |
| 2026-04-24 12:00 | 55.07829 | -1.80922 | 27847 ft | 372 kts | 301° |
| 2026-04-24 12:00 | 55.08648 | -1.83540 | 27575 ft | 369 kts | 300° |
| 2026-04-24 12:00 | 55.09887 | -1.87510 | 27155 ft | 366 kts | 300° |
| 2026-04-24 12:01 | 55.11084 | -1.91352 | 26743 ft | 364 kts | 300° |
| 2026-04-24 12:01 | 55.12288 | -1.95215 | 26323 ft | 361 kts | 300° |
| 2026-04-24 12:01 | 55.13517 | -1.99067 | 25796 ft | 366 kts | 301° |
| 2026-04-24 12:01 | 55.14792 | -2.02934 | 25252 ft | 367 kts | 302° |
| 2026-04-24 12:02 | 55.16080 | -2.06787 | 24738 ft | 368 kts | 302° |
| 2026-04-24 12:02 | 55.17375 | -2.10656 | 24213 ft | 369 kts | 302° |
| 2026-04-24 12:02 | 55.18667 | -2.14542 | 23639 ft | 370 kts | 301° |
| 2026-04-24 12:02 | 55.19951 | -2.18432 | 23090 ft | 369 kts | 301° |
| 2026-04-24 12:03 | 55.21230 | -2.22322 | 22563 ft | 368 kts | 301° |
| 2026-04-24 12:03 | 55.22501 | -2.26208 | 22027 ft | 367 kts | 301° |
| 2026-04-24 12:03 | 55.23768 | -2.30095 | 21517 ft | 367 kts | 301° |
| 2026-04-24 12:03 | 55.25030 | -2.33974 | 20980 ft | 367 kts | 301° |
| 2026-04-24 12:04 | 55.26295 | -2.37857 | 20493 ft | 365 kts | 300° |
| 2026-04-24 12:04 | 55.27548 | -2.41712 | 19993 ft | 365 kts | 300° |
| 2026-04-24 12:04 | 55.28790 | -2.45550 | 19651 ft | 359 kts | 300° |
| 2026-04-24 12:04 | 55.30010 | -2.49326 | 18972 ft | 354 kts | 300° |
| 2026-04-24 12:05 | 55.31214 | -2.53051 | 18364 ft | 346 kts | 300° |
| 2026-04-24 12:05 | 55.32380 | -2.56661 | 17866 ft | 334 kts | 300° |
| 2026-04-24 12:05 | 55.33514 | -2.60173 | 17393 ft | 328 kts | 300° |
| 2026-04-24 12:05 | 55.34640 | -2.63671 | 16920 ft | 330 kts | 300° |
| 2026-04-24 12:06 | 55.35769 | -2.67186 | 16440 ft | 331 kts | 300° |
| 2026-04-24 12:06 | 55.36898 | -2.70709 | 15965 ft | 332 kts | 300° |
| 2026-04-24 12:06 | 55.38038 | -2.74264 | 15484 ft | 334 kts | 300° |
| 2026-04-24 12:06 | 55.39180 | -2.77823 | 14990 ft | 335 kts | 299° |
| 2026-04-24 12:07 | 55.40319 | -2.81383 | 14617 ft | 333 kts | 299° |
| 2026-04-24 12:07 | 55.41453 | -2.84941 | 14264 ft | 331 kts | 299° |
| 2026-04-24 12:07 | 55.42569 | -2.88455 | 13836 ft | 327 kts | 299° |
| 2026-04-24 12:07 | 55.43669 | -2.91925 | 13109 ft | 323 kts | 299° |
| 2026-04-24 12:08 | 55.44754 | -2.95313 | 12600 ft | 313 kts | 301° |
| 2026-04-24 12:08 | 55.46116 | -2.98291 | 12152 ft | 314 kts | 317° |
| 2026-04-24 12:08 | 55.47891 | -3.00434 | 11869 ft | 309 kts | 334° |
| 2026-04-24 12:08 | 55.49894 | -3.01710 | 11679 ft | 301 kts | 342° |
| 2026-04-24 12:09 | 55.51882 | -3.02808 | 11362 ft | 298 kts | 341° |
| 2026-04-24 12:09 | 55.53815 | -3.04046 | 11098 ft | 292 kts | 331° |
| 2026-04-24 12:09 | 55.55393 | -3.06211 | 10811 ft | 286 kts | 309° |
| 2026-04-24 12:09 | 55.56403 | -3.09202 | 10484 ft | 283 kts | 292° |
| 2026-04-24 12:10 | 55.57154 | -3.12406 | 10235 ft | 282 kts | 292° |
| 2026-04-24 12:10 | 55.57904 | -3.15617 | 10104 ft | 283 kts | 292° |
| 2026-04-24 12:10 | 55.58652 | -3.18825 | 9970 ft | 282 kts | 292° |
| 2026-04-24 12:11 | 55.60141 | -3.25234 | 9695 ft | 281 kts | 292° |
| 2026-04-24 12:11 | 55.60874 | -3.28391 | 9576 ft | 281 kts | 292° |
| 2026-04-24 12:11 | 55.61624 | -3.31625 | 9444 ft | 280 kts | 292° |
| 2026-04-24 12:11 | 55.62360 | -3.34810 | 9310 ft | 280 kts | 292° |
| 2026-04-24 12:12 | 55.63087 | -3.37952 | 9171 ft | 279 kts | 292° |
| 2026-04-24 12:12 | 55.64070 | -3.42197 | 9010 ft | 278 kts | 292° |
| 2026-04-24 12:12 | 55.64556 | -3.44291 | 8925 ft | 278 kts | 292° |
| 2026-04-24 12:12 | 55.65290 | -3.47459 | 8735 ft | 276 kts | 292° |
| 2026-04-24 12:13 | 55.66010 | -3.50587 | 8381 ft | 273 kts | 291° |
| 2026-04-24 12:13 | 55.66722 | -3.53696 | 8010 ft | 272 kts | 291° |
| 2026-04-24 12:13 | 55.67433 | -3.56802 | 7613 ft | 272 kts | 291° |
| 2026-04-24 12:13 | 55.68140 | -3.59901 | 7212 ft | 271 kts | 291° |
| 2026-04-24 12:14 | 55.68967 | -3.62895 | 6812 ft | 271 kts | 303° |
| 2026-04-24 12:14 | 55.70199 | -3.65444 | 6227 ft | 277 kts | 319° |
| 2026-04-24 12:14 | 55.71692 | -3.67572 | 5892 ft | 274 kts | 320° |
| 2026-04-24 12:14 | 55.73161 | -3.69685 | 5607 ft | 268 kts | 320° |
| 2026-04-24 12:15 | 55.74569 | -3.71729 | 5464 ft | 256 kts | 320° |
| 2026-04-24 12:15 | 55.75915 | -3.73704 | 5266 ft | 248 kts | 321° |
| 2026-04-24 12:15 | 55.77415 | -3.75123 | 5094 ft | 241 kts | 341° |
| 2026-04-24 12:15 | 55.79031 | -3.75584 | 5008 ft | 233 kts | 359° |
| 2026-04-24 12:16 | 55.80607 | -3.75149 | 4862 ft | 228 kts | 17° |
| 2026-04-24 12:16 | 55.82018 | -3.73896 | 4659 ft | 227 kts | 35° |
| 2026-04-24 12:16 | 55.83138 | -3.71913 | 4388 ft | 229 kts | 54° |
| 2026-04-24 12:16 | 55.83979 | -3.69516 | 4101 ft | 228 kts | 58° |
| 2026-04-24 12:17 | 55.84810 | -3.67094 | 3800 ft | 230 kts | 58° |
| 2026-04-24 12:17 | 55.85635 | -3.64688 | 3493 ft | 225 kts | 58° |
| 2026-04-24 12:17 | 55.86439 | -3.62344 | 3194 ft | 220 kts | 58° |
| 2026-04-24 12:17 | 55.87229 | -3.60039 | 2898 ft | 216 kts | 58° |
| 2026-04-24 12:18 | 55.88003 | -3.57779 | 2629 ft | 211 kts | 58° |
| 2026-04-24 12:18 | 55.88744 | -3.55612 | 2345 ft | 199 kts | 58° |
| 2026-04-24 12:18 | 55.89449 | -3.53549 | 2079 ft | 192 kts | 58° |
| 2026-04-24 12:18 | 55.90140 | -3.51527 | 1808 ft | 189 kts | 58° |
| 2026-04-24 12:19 | 55.90806 | -3.49573 | 1546 ft | 181 kts | 58° |
| 2026-04-24 12:19 | 55.91440 | -3.47716 | 1343 ft | 164 kts | 58° |
| 2026-04-24 12:19 | 55.92003 | -3.46064 | 1109 ft | 150 kts | 58° |
| 2026-04-24 12:19 | 55.92530 | -3.44524 | 898 ft | 142 kts | 58° |
| 2026-04-24 12:20 | 55.93030 | -3.43044 | 725 ft | 137 kts | 58° |
| 2026-04-24 12:20 | 55.93511 | -3.41606 | 514 ft | 136 kts | 58° |
| 2026-04-24 12:20 | 55.94004 | -3.40154 | 315 ft | 134 kts | 58° |
| 2026-04-24 12:20 | 55.94490 | -3.38745 | 170 ft | 133 kts | 59° |
| 2026-04-24 12:21 | 55.94939 | -3.37428 | 111 ft | 110 kts | 59° |
| 2026-04-24 12:21 | 55.95186 | -3.36695 | 114 ft | 28 kts | 58° |
| 2026-04-24 12:21 | 55.95261 | -3.36483 | 111 ft | 14 kts | 60° |
| 2026-04-24 12:21 | 55.95242 | -3.36397 | 112 ft | 7 kts | 154° |
| 2026-04-24 12:22 | 55.95221 | -3.36378 | 112 ft | 0 kts | 152° |
| 2026-04-24 12:22 | 55.95203 | -3.36361 | 115 ft | 5 kts | 151° |
| 2026-04-24 12:22 | 55.95180 | -3.36338 | 115 ft | 5 kts | 150° |
| 2026-04-24 12:22 | 55.95128 | -3.36316 | 116 ft | 8 kts | 204° |
| 2026-04-24 12:23 | 55.95089 | -3.36415 | 114 ft | 14 kts | 238° |
| 2026-04-24 12:23 | 55.95040 | -3.36561 | 114 ft | 13 kts | 239° |
| 2026-04-24 12:23 | 55.94997 | -3.36690 | 114 ft | 12 kts | 239° |
| 2026-04-24 12:23 | 55.94955 | -3.36807 | 113 ft | 11 kts | 231° |
| 2026-04-24 12:24 | 55.94893 | -3.36800 | 113 ft | 9 kts | 152° |
| 2026-04-24 12:24 | 55.94833 | -3.36780 | 116 ft | 8 kts | 177° |
| 2026-04-24 12:24 | 55.94800 | -3.36756 | 112 ft | 1 kts | 116° |
| 2026-04-24 12:24 | 55.94800 | -3.36741 | 113 ft | 1 kts | 91° |
| 2026-04-24 12:25 | 55.94800 | -3.36714 | 116 ft | 5 kts | 89° |
| 2026-04-24 12:25 | 55.94800 | -3.36660 | 116 ft | 4 kts | 89° |
| 2026-04-24 12:25 | 55.94801 | -3.36638 | 116 ft | 0 kts | 89° |